Time;durP1;ratioP1;P1;durP2;ratioP2;P2;SDS_P1;SDS_P2;PMS_P1;PMS_P2;Temp;Humidity;BMP_temperature;BMP_pressure;BME280_temperature;BME280_humidity;BME280_pressure;Samples;Min_cycle;Max_cycle;Signal;HPM_P1;HPM_P2
2022/02/15 00:01:33;;;;;;;;;4.00;4.00;;;;;;;;5078225;28;45391;-92
2022/02/15 00:03:59;;;;;;;;;3.67;3.67;;;;;;;;5085650;27;45264;-93
2022/02/15 00:06:24;;;;;;;;;5.33;3.33;;;;;;;;5081208;27;48056;-93
2022/02/15 00:08:49;;;;;;;;;4.00;3.00;;;;;;;;5069395;27;45391;-93
2022/02/15 00:11:15;;;;;;;;;3.33;3.33;;;;;;;;5097557;27;45445;-93
2022/02/15 00:13:40;;;;;;;;;0.00;0.00;;;;;;;;5089366;27;47281;-93
2022/02/15 00:16:05;;;;;;;;;9.00;4.00;;;;;;;;5084392;27;47126;-92
2022/02/15 00:18:31;;;;;;;;;2.00;2.00;;;;;;;;5092290;27;45374;-92
2022/02/15 00:20:56;;;;;;;;;3.00;3.00;;;;;;;;5079474;27;45521;-93
2022/02/15 00:23:21;;;;;;;;;3.00;3.00;;;;;;;;5094906;27;45672;-93
2022/02/15 00:25:46;;;;;;;;;6.00;4.00;;;;;;;;5076844;27;47057;-93
2022/02/15 00:28:12;;;;;;;;;4.67;3.33;;;;;;;;5077103;27;45358;-93
2022/02/15 00:30:37;;;;;;;;;2.67;2.67;;;;;;;;5078657;27;45545;-93
2022/02/15 00:33:02;;;;;;;;;1.33;1.33;;;;;;;;5086421;27;45586;-92
2022/02/15 00:35:28;;;;;;;;;3.00;3.00;;;;;;;;5088456;27;47300;-92
2022/02/15 00:37:53;;;;;;;;;4.00;3.00;;;;;;;;5058006;27;46231;-92
2022/02/15 00:40:18;;;;;;;;;1.00;1.00;;;;;;;;5079422;27;45358;-92
2022/02/15 00:42:44;;;;;;;;;3.00;2.00;;;;;;;;5083483;27;45656;-93
2022/02/15 00:45:10;;;;;;;;;2.00;2.00;;;;;;;;5086614;27;47881;-93
2022/02/15 00:47:35;;;;;;;;;3.00;2.00;;;;;;;;5086432;27;45407;-93
2022/02/15 00:50:01;;;;;;;;;1.67;1.67;;;;;;;;5091625;27;45427;-93
2022/02/15 00:52:27;;;;;;;;;2.00;2.00;;;;;;;;5081618;27;45599;-93
2022/02/15 00:54:53;;;;;;;;;3.00;3.00;;;;;;;;5088315;27;45582;-93
2022/02/15 00:57:18;;;;;;;;;3.67;2.00;;;;;;;;5074708;28;45408;-93
2022/02/15 00:59:43;;;;;;;;;7.00;3.67;;;;;;;;5086065;27;45422;-93
2022/02/15 01:02:08;;;;;;;;;2.00;2.00;;;;;;;;5077614;27;45344;-92
2022/02/15 01:04:34;;;;;;;;;1.00;1.00;;;;;;;;5078030;27;46451;-92
2022/02/15 01:06:59;;;;;;;;;3.33;2.00;;;;;;;;5077492;27;45261;-92
2022/02/15 01:09:24;;;;;;;;;2.67;2.33;;;;;;;;5078313;27;45304;-92
2022/02/15 01:11:49;;;;;;;;;6.00;4.00;;;;;;;;5076953;27;45480;-93
2022/02/15 01:14:15;;;;;;;;;4.67;3.00;;;;;;;;5083184;27;47012;-94
2022/02/15 01:16:40;;;;;;;;;2.67;2.67;;;;;;;;5093441;27;45915;-93
2022/02/15 01:19:05;;;;;;;;;3.00;3.00;;;;;;;;5074905;28;45283;-92
2022/02/15 01:21:30;;;;;;;;;4.33;2.00;;;;;;;;5073274;27;45448;-93
2022/02/15 01:23:56;;;;;;;;;3.00;3.00;;;;;;;;5096040;27;45533;-93
2022/02/15 01:26:21;;;;;;;;;2.67;2.67;;;;;;;;5077186;27;45480;-93
2022/02/15 01:28:47;;;;;;;;;2.33;2.00;;;;;;;;5078035;27;45391;-91
2022/02/15 01:31:12;;;;;;;;;6.00;2.33;;;;;;;;5077730;27;45442;-93
2022/02/15 01:33:37;;;;;;;;;3.00;2.00;;;;;;;;5079894;27;48322;-92
2022/02/15 01:36:03;;;;;;;;;3.00;2.00;;;;;;;;5077459;27;45871;-93
2022/02/15 01:38:28;;;;;;;;;3.33;3.00;;;;;;;;5078562;27;45359;-93
2022/02/15 01:40:54;;;;;;;;;2.00;2.00;;;;;;;;5095129;27;45755;-92
2022/02/15 01:43:19;;;;;;;;;4.00;3.00;;;;;;;;5077825;27;47297;-94
2022/02/15 01:45:45;;;;;;;;;4.00;2.67;;;;;;;;5077137;27;45658;-93
2022/02/15 01:48:10;;;;;;;;;2.00;2.00;;;;;;;;5096539;27;45505;-93
2022/02/15 01:50:35;;;;;;;;;4.67;3.00;;;;;;;;5077197;27;45704;-93
2022/02/15 01:53:01;;;;;;;;;3.67;3.00;;;;;;;;5080679;27;47012;-93
2022/02/15 01:55:26;;;;;;;;;4.00;3.00;;;;;;;;5098609;27;45299;-92
2022/02/15 01:57:52;;;;;;;;;3.00;2.00;;;;;;;;5078154;27;45533;-92
2022/02/15 02:00:18;;;;;;;;;3.33;2.00;;;;;;;;5076918;27;45414;-91
2022/02/15 02:02:44;;;;;;;;;1.00;1.00;;;;;;;;5073921;28;48040;-93
2022/02/15 02:07:54;;;;;;;;;1.00;1.00;;;;;;;;5099594;27;45476;-92
2022/02/15 02:10:20;;;;;;;;;3.00;2.00;;;;;;;;5081342;27;45170;-94
2022/02/15 02:12:45;;;;;;;;;2.00;2.00;;;;;;;;5094861;27;46362;-93
2022/02/15 02:15:18;;;;;;;;;6.00;2.33;;;;;;;;5080067;27;45528;-92
2022/02/15 02:17:43;;;;;;;;;4.00;1.00;;;;;;;;5097373;27;45351;-93
2022/02/15 02:20:09;;;;;;;;;1.00;1.00;;;;;;;;5080117;27;45323;-93
2022/02/15 02:22:34;;;;;;;;;3.00;2.00;;;;;;;;5080897;27;48395;-92
2022/02/15 02:24:59;;;;;;;;;2.67;2.33;;;;;;;;5077280;28;45466;-92
2022/02/15 02:27:29;;;;;;;;;1.67;1.67;;;;;;;;5072473;27;45448;-93
2022/02/15 02:29:55;;;;;;;;;1.00;1.00;;;;;;;;5087738;27;45478;-92
2022/02/15 02:32:21;;;;;;;;;3.00;2.00;;;;;;;;5075983;27;48468;-92
2022/02/15 02:34:46;;;;;;;;;2.33;2.00;;;;;;;;5080059;27;48059;-93
2022/02/15 02:37:14;;;;;;;;;2.00;2.00;;;;;;;;5074042;27;45475;-92
2022/02/15 02:39:44;;;;;;;;;2.00;2.00;;;;;;;;5096355;27;45601;-92
2022/02/15 02:42:09;;;;;;;;;2.33;1.00;;;;;;;;5080159;27;48035;-93
2022/02/15 02:44:34;;;;;;;;;3.67;1.00;;;;;;;;5088535;27;45446;-92
2022/02/15 02:47:00;;;;;;;;;3.00;2.00;;;;;;;;5116767;27;45577;-92
2022/02/15 02:49:25;;;;;;;;;1.00;1.00;;;;;;;;5081562;27;45569;-93
2022/02/15 02:51:50;;;;;;;;;1.00;1.00;;;;;;;;5111982;27;47187;-93
2022/02/15 02:54:15;;;;;;;;;3.00;1.00;;;;;;;;5115345;27;46134;-90
2022/02/15 02:56:41;;;;;;;;;3.00;1.00;;;;;;;;5108279;27;44761;-92
2022/02/15 02:59:06;;;;;;;;;2.33;1.00;;;;;;;;5100339;27;45351;-92
2022/02/15 03:01:31;;;;;;;;;2.33;1.00;;;;;;;;5105239;27;46453;-92
2022/02/15 03:03:56;;;;;;;;;1.00;1.00;;;;;;;;5080177;27;45524;-92
2022/02/15 03:06:22;;;;;;;;;1.00;1.00;;;;;;;;5079940;27;45558;-93
2022/02/15 03:08:47;;;;;;;;;1.67;1.67;;;;;;;;5080375;27;45501;-93
2022/02/15 03:11:12;;;;;;;;;1.00;1.00;;;;;;;;5078124;27;47016;-93
2022/02/15 03:13:37;;;;;;;;;1.67;1.33;;;;;;;;5079587;27;45642;-92
2022/02/15 03:16:03;;;;;;;;;4.00;4.00;;;;;;;;5080594;27;45241;-91
2022/02/15 03:18:28;;;;;;;;;2.33;1.67;;;;;;;;5078676;27;45595;-92
2022/02/15 03:20:53;;;;;;;;;2.33;2.33;;;;;;;;5089507;27;46326;-92
2022/02/15 03:23:19;;;;;;;;;3.33;2.33;;;;;;;;5075854;28;45465;-93
2022/02/15 03:25:44;;;;;;;;;5.67;0.67;;;;;;;;5076754;27;45352;-92
2022/02/15 03:28:09;;;;;;;;;3.00;1.67;;;;;;;;5072133;27;45445;-92
2022/02/15 03:30:34;;;;;;;;;3.33;1.00;;;;;;;;5079467;27;47114;-93
2022/02/15 03:32:59;;;;;;;;;3.00;1.00;;;;;;;;5076050;27;45798;-93
2022/02/15 03:35:25;;;;;;;;;3.00;2.00;;;;;;;;5059339;28;45361;-93
2022/02/15 03:37:50;;;;;;;;;4.67;2.00;;;;;;;;5079945;27;45317;-93
2022/02/15 03:40:15;;;;;;;;;1.00;1.00;;;;;;;;5080391;27;46305;-93
2022/02/15 03:45:24;;;;;;;;;1.00;1.00;;;;;;;;5083131;27;45399;-92
2022/02/15 03:47:50;;;;;;;;;2.00;2.00;;;;;;;;5065440;28;45352;-93
2022/02/15 03:50:15;;;;;;;;;3.00;2.00;;;;;;;;5075584;27;48189;-93
2022/02/15 03:52:40;;;;;;;;;1.00;1.00;;;;;;;;5076289;27;45725;-93
2022/02/15 03:55:06;;;;;;;;;6.67;1.33;;;;;;;;5070235;28;45304;-93
2022/02/15 03:57:35;;;;;;;;;0.33;0.33;;;;;;;;5092294;27;45514;-93
2022/02/15 04:00:00;;;;;;;;;1.00;1.00;;;;;;;;5095999;27;47758;-92
2022/02/15 04:02:26;;;;;;;;;1.00;1.00;;;;;;;;5092284;27;45470;-93
2022/02/15 04:04:51;;;;;;;;;1.00;1.00;;;;;;;;5077034;27;45369;-93
2022/02/15 04:07:16;;;;;;;;;1.00;1.00;;;;;;;;5076369;27;45556;-93
2022/02/15 04:09:41;;;;;;;;;1.33;1.33;;;;;;;;5088240;27;47393;-92
2022/02/15 04:12:07;;;;;;;;;0.33;0.33;;;;;;;;5087417;27;45388;-92
2022/02/15 04:14:32;;;;;;;;;1.67;1.00;;;;;;;;5091562;27;45579;-92
2022/02/15 04:16:58;;;;;;;;;1.00;1.00;;;;;;;;5079280;27;45193;-93
2022/02/15 04:19:23;;;;;;;;;4.33;1.00;;;;;;;;5096160;27;47008;-92
2022/02/15 04:21:48;;;;;;;;;1.00;1.00;;;;;;;;5095792;27;45993;-93
2022/02/15 04:24:14;;;;;;;;;2.00;0.33;;;;;;;;5095526;27;45276;-92
2022/02/15 04:26:39;;;;;;;;;2.33;1.00;;;;;;;;5104620;27;45442;-92
2022/02/15 04:29:04;;;;;;;;;0.67;0.67;;;;;;;;5110145;27;47931;-93
2022/02/15 04:31:29;;;;;;;;;1.33;1.00;;;;;;;;5076234;28;45489;-93
2022/02/15 04:33:55;;;;;;;;;6.00;2.00;;;;;;;;5091377;27;45382;-93
2022/02/15 04:36:20;;;;;;;;;1.00;1.00;;;;;;;;5095990;27;45643;-92
2022/02/15 04:38:45;;;;;;;;;1.67;0.33;;;;;;;;5097095;27;47200;-92
2022/02/15 04:41:10;;;;;;;;;3.33;3.33;;;;;;;;5091590;27;45453;-92
2022/02/15 04:43:36;;;;;;;;;1.00;1.00;;;;;;;;5096505;27;45566;-93
2022/02/15 04:46:01;;;;;;;;;1.00;1.00;;;;;;;;5095931;27;45445;-94
2022/02/15 04:48:26;;;;;;;;;0.00;0.00;;;;;;;;5084069;27;48108;-93
2022/02/15 04:50:52;;;;;;;;;3.00;2.33;;;;;;;;5084996;27;45520;-92
2022/02/15 04:53:17;;;;;;;;;1.00;1.00;;;;;;;;5089536;27;45544;-93
2022/02/15 04:55:42;;;;;;;;;3.00;0.67;;;;;;;;5075915;27;45443;-93
2022/02/15 04:58:07;;;;;;;;;3.67;2.00;;;;;;;;5095681;27;47977;-93
2022/02/15 05:00:33;;;;;;;;;1.33;1.00;;;;;;;;5095959;27;45453;-91
2022/02/15 05:02:58;;;;;;;;;0.00;0.00;;;;;;;;5095367;27;45676;-92
2022/02/15 05:05:23;;;;;;;;;2.67;0.33;;;;;;;;5095509;27;45681;-92
2022/02/15 05:07:48;;;;;;;;;1.00;1.00;;;;;;;;5094870;27;48054;-92
2022/02/15 05:10:14;;;;;;;;;2.00;2.00;;;;;;;;5095409;27;45554;-92
2022/02/15 05:12:39;;;;;;;;;2.00;2.00;;;;;;;;5094528;27;45564;-92
2022/02/15 05:15:09;;;;;;;;;3.00;1.00;;;;;;;;5095135;27;45471;-93
2022/02/15 05:17:35;;;;;;;;;4.33;1.00;;;;;;;;5095356;27;48084;-93
2022/02/15 05:20:00;;;;;;;;;0.00;0.00;;;;;;;;5093627;27;45468;-93
2022/02/15 05:22:26;;;;;;;;;3.00;3.00;;;;;;;;5095242;27;45384;-93
2022/02/15 05:24:51;;;;;;;;;2.67;1.67;;;;;;;;5095691;27;45676;-93
2022/02/15 05:27:17;;;;;;;;;2.33;1.00;;;;;;;;5094291;27;47794;-92
2022/02/15 05:29:43;;;;;;;;;1.00;1.00;;;;;;;;5095216;27;45523;-93
2022/02/15 05:32:09;;;;;;;;;1.00;1.00;;;;;;;;5095009;27;45452;-93
2022/02/15 05:34:34;;;;;;;;;3.00;1.00;;;;;;;;5095436;27;45620;-93
2022/02/15 05:37:00;;;;;;;;;2.00;2.00;;;;;;;;5094742;27;47225;-93
2022/02/15 05:39:25;;;;;;;;;3.00;1.00;;;;;;;;5088906;27;45791;-92
2022/02/15 05:41:50;;;;;;;;;3.00;2.00;;;;;;;;5093080;27;45465;-93
2022/02/15 05:44:16;;;;;;;;;5.33;2.00;;;;;;;;5091925;27;45994;-93
2022/02/15 05:46:41;;;;;;;;;1.00;1.00;;;;;;;;5093873;27;46826;-93
2022/02/15 05:49:07;;;;;;;;;2.00;1.00;;;;;;;;5093109;27;45347;-94
2022/02/15 05:51:32;;;;;;;;;3.67;2.33;;;;;;;;5093139;27;45454;-87
2022/02/15 05:53:58;;;;;;;;;1.00;1.00;;;;;;;;5088826;27;45773;-90
2022/02/15 05:56:23;;;;;;;;;1.33;1.00;;;;;;;;5075631;27;47252;-92
2022/02/15 05:58:48;;;;;;;;;0.67;0.67;;;;;;;;5076904;27;46138;-92
2022/02/15 06:01:13;;;;;;;;;3.00;2.00;;;;;;;;5076173;27;45458;-90
2022/02/15 06:06:22;;;;;;;;;0.67;0.67;;;;;;;;5088939;27;45907;-91
2022/02/15 06:08:48;;;;;;;;;2.00;1.00;;;;;;;;5090930;27;45567;-91
2022/02/15 06:11:13;;;;;;;;;1.00;1.00;;;;;;;;5065009;27;45787;-90
2022/02/15 06:13:38;;;;;;;;;2.00;2.00;;;;;;;;5074851;27;45355;-90
2022/02/15 06:16:05;;;;;;;;;4.67;2.00;;;;;;;;5072630;27;47426;-91
2022/02/15 06:18:30;;;;;;;;;2.67;2.33;;;;;;;;5075373;27;47094;-91
2022/02/15 06:20:55;;;;;;;;;3.00;1.00;;;;;;;;5073061;27;45542;-91
2022/02/15 06:23:20;;;;;;;;;2.00;1.00;;;;;;;;5093668;27;45825;-93
2022/02/15 06:25:46;;;;;;;;;2.00;1.00;;;;;;;;5075035;27;47341;-93
2022/02/15 06:28:11;;;;;;;;;2.00;2.00;;;;;;;;5057132;28;46040;-93
2022/02/15 06:30:36;;;;;;;;;2.00;2.00;;;;;;;;5071211;27;45622;-93
2022/02/15 06:33:02;;;;;;;;;3.33;1.67;;;;;;;;5065327;28;45418;-94
2022/02/15 06:35:27;;;;;;;;;1.33;1.33;;;;;;;;5063171;27;47195;-93
2022/02/15 06:37:52;;;;;;;;;1.00;1.00;;;;;;;;5074621;27;45448;-94
2022/02/15 06:40:18;;;;;;;;;4.33;1.00;;;;;;;;5057437;28;45369;-94
2022/02/15 06:42:44;;;;;;;;;3.00;0.00;;;;;;;;5056266;28;45341;-93
2022/02/15 06:45:10;;;;;;;;;2.00;1.00;;;;;;;;5071402;27;47104;-94
2022/02/15 06:47:35;;;;;;;;;1.67;1.67;;;;;;;;5076663;27;45423;-93
2022/02/15 06:50:01;;;;;;;;;1.33;1.33;;;;;;;;5073292;27;45435;-94
2022/02/15 06:52:26;;;;;;;;;2.00;2.00;;;;;;;;5065494;27;45631;-94
2022/02/15 06:54:51;;;;;;;;;1.67;0.33;;;;;;;;5108757;27;48418;-94
2022/02/15 06:57:17;;;;;;;;;4.00;2.00;;;;;;;;5092670;27;45422;-95
2022/02/15 06:59:42;;;;;;;;;2.00;1.00;;;;;;;;5085902;27;45294;-93
2022/02/15 07:02:07;;;;;;;;;0.00;0.00;;;;;;;;5101493;27;45383;-94
2022/02/15 07:04:33;;;;;;;;;1.00;1.00;;;;;;;;5117669;27;48536;-94
2022/02/15 07:06:58;;;;;;;;;2.67;1.67;;;;;;;;5118241;27;45369;-94
2022/02/15 07:09:23;;;;;;;;;5.00;2.00;;;;;;;;5102842;27;45426;-94
2022/02/15 07:11:48;;;;;;;;;5.00;3.33;;;;;;;;5090538;27;45566;-94
2022/02/15 07:14:14;;;;;;;;;0.33;0.33;;;;;;;;5097372;27;48132;-94
2022/02/15 07:16:43;;;;;;;;;1.67;1.67;;;;;;;;5096801;27;45461;-94
2022/02/15 07:19:08;;;;;;;;;2.00;1.00;;;;;;;;5083831;27;45448;-93
2022/02/15 07:21:33;;;;;;;;;12.00;7.00;;;;;;;;5092727;27;45363;-94
2022/02/15 07:23:59;;;;;;;;;6.33;2.00;;;;;;;;5097112;27;47949;-94
2022/02/15 07:26:24;;;;;;;;;2.00;2.00;;;;;;;;5095395;27;45304;-91
2022/02/15 07:28:49;;;;;;;;;2.00;2.00;;;;;;;;5077799;27;45295;-85
2022/02/15 07:31:15;;;;;;;;;1.67;1.67;;;;;;;;5093934;27;45377;-87
2022/02/15 07:33:40;;;;;;;;;2.00;2.00;;;;;;;;5091108;27;46714;-87
2022/02/15 07:36:05;;;;;;;;;2.00;2.00;;;;;;;;5091933;27;45461;-88
2022/02/15 07:38:31;;;;;;;;;2.00;2.00;;;;;;;;5092976;27;45545;-87
2022/02/15 07:40:56;;;;;;;;;5.33;3.00;;;;;;;;5092879;27;45315;-87
2022/02/15 07:43:21;;;;;;;;;3.00;2.00;;;;;;;;5094549;27;45393;-86
2022/02/15 07:45:47;;;;;;;;;2.00;1.67;;;;;;;;5091096;27;45402;-86
2022/02/15 07:48:12;;;;;;;;;2.33;1.00;;;;;;;;5086006;27;45371;-86
2022/02/15 07:50:37;;;;;;;;;3.00;2.67;;;;;;;;5093666;27;45392;-87
2022/02/15 07:53:03;;;;;;;;;2.00;1.33;;;;;;;;5085043;27;47742;-87
2022/02/15 07:55:28;;;;;;;;;2.33;1.00;;;;;;;;5084678;27;45688;-87
2022/02/15 07:57:53;;;;;;;;;2.33;2.00;;;;;;;;5077572;27;45601;-87
2022/02/15 08:00:20;;;;;;;;;3.00;2.00;;;;;;;;5091118;27;45496;-87
2022/02/15 08:02:46;;;;;;;;;2.00;2.00;;;;;;;;5082700;27;45747;-86
2022/02/15 08:05:12;;;;;;;;;2.33;2.33;;;;;;;;5073408;27;45493;-86
2022/02/15 08:07:37;;;;;;;;;3.00;3.00;;;;;;;;5085352;27;45438;-87
2022/02/15 08:10:03;;;;;;;;;3.00;2.00;;;;;;;;5073202;27;45538;-87
2022/02/15 08:12:28;;;;;;;;;1.00;1.00;;;;;;;;5072749;27;47114;-87
2022/02/15 08:14:53;;;;;;;;;3.00;3.00;;;;;;;;5065572;27;45551;-87
2022/02/15 08:17:19;;;;;;;;;5.33;3.00;;;;;;;;5089608;27;45406;-88
2022/02/15 08:19:44;;;;;;;;;1.67;1.67;;;;;;;;5074790;27;45807;-87
2022/02/15 08:22:10;;;;;;;;;2.00;2.00;;;;;;;;5076015;27;48418;-87
2022/02/15 08:24:36;;;;;;;;;5.00;3.00;;;;;;;;5078058;27;45448;-87
2022/02/15 08:27:01;;;;;;;;;5.67;1.00;;;;;;;;5090375;27;45630;-87
2022/02/15 08:29:27;;;;;;;;;2.00;1.00;;;;;;;;5075117;27;45435;-89
2022/02/15 08:31:52;;;;;;;;;7.67;2.00;;;;;;;;5077037;27;47811;-89
2022/02/15 08:34:18;;;;;;;;;3.00;1.00;;;;;;;;5087196;27;45331;-89
2022/02/15 08:36:43;;;;;;;;;2.00;2.00;;;;;;;;5074653;27;45554;-86
2022/02/15 08:39:08;;;;;;;;;2.67;1.00;;;;;;;;5098256;27;45377;-87
2022/02/15 08:41:33;;;;;;;;;6.00;2.00;;;;;;;;5091744;27;45698;-86
2022/02/15 08:43:59;;;;;;;;;2.67;2.00;;;;;;;;5092050;27;45449;-87
2022/02/15 08:46:25;;;;;;;;;2.67;1.00;;;;;;;;5074285;27;45864;-86
2022/02/15 08:48:50;;;;;;;;;2.00;1.00;;;;;;;;5073927;27;45659;-87
2022/02/15 08:51:19;;;;;;;;;2.00;1.00;;;;;;;;5075991;27;48279;-86
2022/02/15 08:53:49;;;;;;;;;2.00;2.00;;;;;;;;5083297;27;45580;-86
2022/02/15 08:56:15;;;;;;;;;1.33;1.33;;;;;;;;5078885;27;45446;-88
2022/02/15 08:58:41;;;;;;;;;1.33;0.67;;;;;;;;5066205;27;45464;-87
2022/02/15 09:01:06;;;;;;;;;3.00;1.67;;;;;;;;5078622;27;47025;-87
2022/02/15 09:03:31;;;;;;;;;2.67;1.67;;;;;;;;5071421;27;45370;-88
2022/02/15 09:05:56;;;;;;;;;4.00;3.00;;;;;;;;5069619;27;46096;-93
2022/02/15 09:08:23;;;;;;;;;1.00;1.00;;;;;;;;5072952;27;45374;-89
2022/02/15 09:10:48;;;;;;;;;3.67;1.00;;;;;;;;5070123;27;47200;-90
2022/02/15 09:13:13;;;;;;;;;2.67;1.67;;;;;;;;5093269;27;45717;-89
2022/02/15 09:15:38;;;;;;;;;1.00;1.00;;;;;;;;5087691;27;45483;-89
2022/02/15 09:18:03;;;;;;;;;0.67;0.67;;;;;;;;5085444;27;45474;-88
2022/02/15 09:20:28;;;;;;;;;1.33;1.33;;;;;;;;5084646;27;46297;-88
2022/02/15 09:22:54;;;;;;;;;4.33;2.00;;;;;;;;5077486;27;45970;-89
2022/02/15 09:25:19;;;;;;;;;2.00;2.00;;;;;;;;5072888;27;46592;-90
2022/02/15 09:27:44;;;;;;;;;3.33;1.67;;;;;;;;5065137;27;45826;-89
2022/02/15 09:30:10;;;;;;;;;1.00;1.00;;;;;;;;5070439;27;47942;-90
2022/02/15 09:32:35;;;;;;;;;1.67;1.00;;;;;;;;5088481;27;45483;-87
2022/02/15 09:35:01;;;;;;;;;1.33;1.33;;;;;;;;5088300;27;45461;-87
2022/02/15 09:37:26;;;;;;;;;3.67;2.00;;;;;;;;5090538;27;45643;-86
2022/02/15 09:39:52;;;;;;;;;3.33;1.67;;;;;;;;5070077;27;47033;-87
2022/02/15 09:42:18;;;;;;;;;1.33;1.33;;;;;;;;5089045;27;45694;-86
2022/02/15 09:44:45;;;;;;;;;2.00;0.67;;;;;;;;5070137;27;45459;-85
2022/02/15 09:47:11;;;;;;;;;6.67;3.33;;;;;;;;5089583;27;45753;-89
2022/02/15 09:49:48;;;;;;;;;4.00;3.00;;;;;;;;5092518;27;46693;-86
2022/02/15 09:52:13;;;;;;;;;1.67;1.67;;;;;;;;5070039;27;45442;-86
2022/02/15 09:54:39;;;;;;;;;2.00;1.00;;;;;;;;5098744;27;45696;-85
2022/02/15 09:57:05;;;;;;;;;1.00;1.00;;;;;;;;5103977;27;45484;-86
2022/02/15 09:59:30;;;;;;;;;2.00;2.00;;;;;;;;5107207;27;46259;-85
2022/02/15 10:01:56;;;;;;;;;3.33;0.67;;;;;;;;5105395;27;45483;-86
2022/02/15 10:04:32;;;;;;;;;1.33;0.00;;;;;;;;5084578;27;45545;-85
2022/02/15 10:06:57;;;;;;;;;6.33;2.67;;;;;;;;5108137;27;45418;-86
2022/02/15 10:09:24;;;;;;;;;3.00;2.00;;;;;;;;5086366;27;48417;-86
2022/02/15 10:11:49;;;;;;;;;2.67;1.33;;;;;;;;5098802;27;46348;-87
2022/02/15 10:14:17;;;;;;;;;4.67;1.00;;;;;;;;5090434;27;45640;-86
2022/02/15 10:16:47;;;;;;;;;2.33;1.67;;;;;;;;5108433;27;45506;-87
2022/02/15 10:19:20;;;;;;;;;1.00;1.00;;;;;;;;5111103;27;46286;-88
2022/02/15 10:21:48;;;;;;;;;1.33;1.33;;;;;;;;5089469;27;46017;-87
2022/02/15 10:24:14;;;;;;;;;5.00;1.67;;;;;;;;5090522;27;52151;-86
2022/02/15 10:26:39;;;;;;;;;3.00;2.00;;;;;;;;5089084;27;45551;-86
2022/02/15 10:29:05;;;;;;;;;3.00;3.00;;;;;;;;5103117;27;45414;-87
2022/02/15 10:31:37;;;;;;;;;1.67;1.67;;;;;;;;5091240;27;45529;-87
2022/02/15 10:34:03;;;;;;;;;1.00;1.00;;;;;;;;5114031;27;45519;-87
2022/02/15 10:36:28;;;;;;;;;2.00;1.00;;;;;;;;5113462;27;45444;-88
2022/02/15 10:38:56;;;;;;;;;1.00;1.00;;;;;;;;5091685;27;47872;-88
2022/02/15 10:41:21;;;;;;;;;1.00;1.00;;;;;;;;5094214;27;45501;-88
2022/02/15 10:43:49;;;;;;;;;2.33;1.67;;;;;;;;5106053;27;45444;-88
2022/02/15 10:46:16;;;;;;;;;1.33;0.33;;;;;;;;5098079;27;45564;-89
2022/02/15 10:48:41;;;;;;;;;5.33;1.00;;;;;;;;5093259;27;47313;-88
2022/02/15 10:51:07;;;;;;;;;0.00;0.00;;;;;;;;5095318;27;46718;-88
2022/02/15 10:53:32;;;;;;;;;1.00;1.00;;;;;;;;5097157;27;45461;-89
2022/02/15 10:55:58;;;;;;;;;3.00;1.33;;;;;;;;5111791;27;45571;-92
2022/02/15 10:58:26;;;;;;;;;3.00;1.00;;;;;;;;5114752;27;46555;-86
2022/02/15 11:00:53;;;;;;;;;3.33;0.33;;;;;;;;5089723;27;46272;-88
2022/02/15 11:03:19;;;;;;;;;2.00;2.00;;;;;;;;5107246;27;45591;-86
2022/02/15 11:05:44;;;;;;;;;5.33;2.00;;;;;;;;5091457;27;45647;-86
2022/02/15 11:08:10;;;;;;;;;5.33;3.00;;;;;;;;5111936;27;46637;-87
2022/02/15 11:10:41;;;;;;;;;2.00;2.00;;;;;;;;5108889;27;45473;-86
2022/02/15 11:13:07;;;;;;;;;4.00;3.00;;;;;;;;5110287;27;45436;-86
2022/02/15 11:15:33;;;;;;;;;1.67;1.67;;;;;;;;5112490;27;45630;-87
2022/02/15 11:18:03;;;;;;;;;3.33;1.00;;;;;;;;5107060;27;46498;-86
2022/02/15 11:20:50;;;;;;;;;0.00;0.00;;;;;;;;5091600;27;45469;-87
2022/02/15 11:23:16;;;;;;;;;0.00;0.00;;;;;;;;5110186;27;45662;-86
2022/02/15 11:25:41;;;;;;;;;2.00;1.00;;;;;;;;5093297;27;45579;-86
2022/02/15 11:28:11;;;;;;;;;2.00;2.00;;;;;;;;5102796;27;45484;-87
2022/02/15 11:30:46;;;;;;;;;3.33;0.00;;;;;;;;5107288;27;45418;-87
2022/02/15 11:33:16;;;;;;;;;2.00;1.00;;;;;;;;5091994;27;45461;-85
2022/02/15 11:36:19;;;;;;;;;0.67;0.67;;;;;;;;5092013;27;45527;-85
2022/02/15 11:38:51;;;;;;;;;1.33;1.33;;;;;;;;4995011;28;45685;-86
2022/02/15 11:41:17;;;;;;;;;1.33;0.00;;;;;;;;4998502;28;45633;-88
2022/02/15 11:43:51;;;;;;;;;1.00;1.00;;;;;;;;5009578;28;45379;-88
2022/02/15 11:46:26;;;;;;;;;2.00;1.67;;;;;;;;4992192;28;45438;-87
2022/02/15 11:48:51;;;;;;;;;0.67;0.67;;;;;;;;4985389;28;48253;-87
2022/02/15 11:51:23;;;;;;;;;1.33;1.00;;;;;;;;5010198;28;45553;-87
2022/02/15 11:53:54;;;;;;;;;17.00;17.00;;;;;;;;5008674;28;45446;-88
2022/02/15 11:56:20;;;;;;;;;11.00;8.00;;;;;;;;5008019;28;45398;-90
2022/02/15 11:58:46;;;;;;;;;6.67;5.33;;;;;;;;4993943;28;46326;-89
2022/02/15 12:01:21;;;;;;;;;5.67;4.67;;;;;;;;5001029;28;45432;-88
2022/02/15 12:03:49;;;;;;;;;4.00;3.00;;;;;;;;5006542;28;45505;-89
2022/02/15 12:06:14;;;;;;;;;9.00;6.00;;;;;;;;4990970;28;45606;-88
2022/02/15 12:08:39;;;;;;;;;2.67;1.33;;;;;;;;5007193;28;46299;-90
2022/02/15 12:11:05;;;;;;;;;2.33;2.33;;;;;;;;5007911;28;45420;-88
2022/02/15 12:13:32;;;;;;;;;2.00;2.00;;;;;;;;5074565;27;45378;-86
2022/02/15 12:15:59;;;;;;;;;1.00;1.00;;;;;;;;5100319;27;45519;-86
2022/02/15 12:18:32;;;;;;;;;5.00;4.00;;;;;;;;5088925;27;47230;-87
2022/02/15 12:20:57;;;;;;;;;3.00;1.00;;;;;;;;5108931;27;45481;-85
2022/02/15 12:23:24;;;;;;;;;2.00;1.33;;;;;;;;5092379;27;45445;-86
2022/02/15 12:25:49;;;;;;;;;1.67;1.67;;;;;;;;5112427;27;45456;-86
2022/02/15 12:28:24;;;;;;;;;1.00;1.00;;;;;;;;5112059;27;48222;-86
2022/02/15 12:30:50;;;;;;;;;2.33;2.00;;;;;;;;5110133;27;45293;-86
2022/02/15 12:33:17;;;;;;;;;3.00;2.67;;;;;;;;5105852;27;45540;-86
2022/02/15 12:35:42;;;;;;;;;4.33;2.67;;;;;;;;5089321;27;45605;-86
2022/02/15 12:38:08;;;;;;;;;4.00;3.00;;;;;;;;5110444;27;46477;-86
2022/02/15 12:40:33;;;;;;;;;3.00;1.00;;;;;;;;5114869;27;45540;-86
2022/02/15 12:42:58;;;;;;;;;2.67;2.00;;;;;;;;5111300;27;45406;-86
2022/02/15 12:45:24;;;;;;;;;3.00;1.00;;;;;;;;5110375;27;45704;-87
2022/02/15 12:47:50;;;;;;;;;2.00;1.00;;;;;;;;5092736;27;46980;-87
2022/02/15 12:50:17;;;;;;;;;2.00;2.00;;;;;;;;5092153;27;45538;-87
2022/02/15 12:52:42;;;;;;;;;1.67;1.67;;;;;;;;5093029;27;45529;-86
2022/02/15 12:55:26;;;;;;;;;0.67;0.67;;;;;;;;5113135;27;45426;-88
2022/02/15 12:57:52;;;;;;;;;5.33;1.33;;;;;;;;5090609;27;47265;-87
2022/02/15 13:00:19;;;;;;;;;3.00;2.00;;;;;;;;5089084;27;45602;-87
2022/02/15 13:02:45;;;;;;;;;4.00;1.33;;;;;;;;5089932;27;45512;-87
2022/02/15 13:05:10;;;;;;;;;2.00;1.00;;;;;;;;5084733;27;45913;-87
2022/02/15 13:07:44;;;;;;;;;0.67;0.67;;;;;;;;5087298;27;48231;-87
2022/02/15 13:10:09;;;;;;;;;0.67;0.67;;;;;;;;5091834;27;45425;-87
2022/02/15 13:12:34;;;;;;;;;1.67;0.00;;;;;;;;5105962;27;45592;-87
2022/02/15 13:15:00;;;;;;;;;2.00;2.00;;;;;;;;5092635;27;45599;-87
2022/02/15 13:17:37;;;;;;;;;3.33;2.00;;;;;;;;5090679;27;47407;-87
2022/02/15 13:20:18;;;;;;;;;1.00;1.00;;;;;;;;5087972;27;46349;-87
2022/02/15 13:22:44;;;;;;;;;0.00;0.00;;;;;;;;5092452;27;45640;-86
2022/02/15 13:25:10;;;;;;;;;1.00;1.00;;;;;;;;5089185;27;45749;-87
2022/02/15 13:27:35;;;;;;;;;1.00;1.00;;;;;;;;5092798;27;46057;-87
2022/02/15 13:30:16;;;;;;;;;2.00;0.00;;;;;;;;5106533;27;45511;-86
2022/02/15 13:32:41;;;;;;;;;2.33;1.67;;;;;;;;5106683;27;45901;-87
2022/02/15 13:35:07;;;;;;;;;1.00;1.00;;;;;;;;5088062;27;45355;-87
2022/02/15 13:37:33;;;;;;;;;0.33;0.00;;;;;;;;5086526;27;47207;-86
2022/02/15 13:40:00;;;;;;;;;1.00;1.00;;;;;;;;5107110;27;45514;-87
2022/02/15 13:42:25;;;;;;;;;1.67;1.67;;;;;;;;5087563;27;45724;-86
2022/02/15 13:44:50;;;;;;;;;1.00;1.00;;;;;;;;5110717;27;45471;-87
2022/02/15 13:47:15;;;;;;;;;3.00;0.33;;;;;;;;5108618;27;45620;-87
2022/02/15 13:49:40;;;;;;;;;4.00;1.33;;;;;;;;5102541;27;45478;-86
2022/02/15 13:52:06;;;;;;;;;3.33;3.00;;;;;;;;5092389;27;45426;-86
2022/02/15 13:54:32;;;;;;;;;1.33;1.00;;;;;;;;5090261;27;45621;-86
2022/02/15 13:56:57;;;;;;;;;1.00;1.00;;;;;;;;5104106;27;45480;-87
2022/02/15 13:59:23;;;;;;;;;1.67;1.00;;;;;;;;5106187;27;45463;-86
2022/02/15 14:01:51;;;;;;;;;4.00;2.00;;;;;;;;5090320;27;45396;-87
2022/02/15 14:04:16;;;;;;;;;2.33;1.33;;;;;;;;5092158;27;45537;-87
2022/02/15 14:06:41;;;;;;;;;1.00;1.00;;;;;;;;5090666;27;46025;-87
2022/02/15 14:09:06;;;;;;;;;1.00;1.00;;;;;;;;5108158;27;45762;-86
2022/02/15 14:11:32;;;;;;;;;5.00;2.33;;;;;;;;5089389;27;45465;-87
2022/02/15 14:13:58;;;;;;;;;2.67;2.00;;;;;;;;5089764;27;45320;-88
2022/02/15 14:16:23;;;;;;;;;1.67;1.67;;;;;;;;5104684;27;45541;-87
2022/02/15 14:18:48;;;;;;;;;1.00;1.00;;;;;;;;5108879;27;45537;-86
2022/02/15 14:21:14;;;;;;;;;1.00;1.00;;;;;;;;5087272;27;45435;-86
2022/02/15 14:23:40;;;;;;;;;3.00;1.67;;;;;;;;5103950;27;45584;-87
2022/02/15 14:26:05;;;;;;;;;2.33;1.00;;;;;;;;5089416;27;48034;-87
2022/02/15 14:28:31;;;;;;;;;2.33;2.33;;;;;;;;5110062;27;45432;-86
2022/02/15 14:30:56;;;;;;;;;1.33;1.33;;;;;;;;5089624;27;45573;-86
2022/02/15 14:33:22;;;;;;;;;5.00;2.00;;;;;;;;5108225;27;45881;-86
2022/02/15 14:35:48;;;;;;;;;2.33;1.67;;;;;;;;5090542;27;47134;-86
2022/02/15 14:38:14;;;;;;;;;2.33;2.33;;;;;;;;5108567;27;45678;-86
2022/02/15 14:40:39;;;;;;;;;1.00;1.00;;;;;;;;5109542;27;45512;-86
2022/02/15 14:43:04;;;;;;;;;1.00;1.00;;;;;;;;5109464;27;45530;-87
2022/02/15 14:45:30;;;;;;;;;3.00;3.00;;;;;;;;5107249;27;47773;-87